Terminal Aerodrome Forecast
Issued by NWS Buffalo, NY

Home | Current Version | Previous Version | Text Only | Print | Product List | Glossary On
Versions: 1 2 3 4 5 6 7 8 9 10 11 12 13 14 15 16 17 18 19 20 21 22 23
683
FTUS41 KBUF 220520
TAFBUF
TAF
KBUF 220520Z 2206/2306 18006KT P6SM SCT050 BKN200
     FM221000 20010KT P6SM BKN100
     FM221300 22014G23KT P6SM SCT040 BKN100
     FM221600 23018G27KT 6SM -SHRA VCTS BKN040CB
     FM221900 23022G32KT P6SM SCT050 BKN200
     FM222100 23025G38KT P6SM SCT050 BKN200
     FM230000 25018G28KT P6SM VCSH BKN050=

USA.gov is the U.S. government's official web portal to all federal, state and local government web resources and services.